createdAt,value
2023-02-25T00:01:57.825Z,7.56
2023-02-25T00:04:32.631Z,7.53
2023-02-25T00:07:00.975Z,7.55
2023-02-25T00:09:30.133Z,7.57
2023-02-25T00:11:58.374Z,7.61
2023-02-25T00:14:26.771Z,7.66
2023-02-25T00:16:57.569Z,7.71
2023-02-25T00:19:27.035Z,7.74
2023-02-25T00:21:55.189Z,7.74
2023-02-25T00:24:23.542Z,7.73
2023-02-25T00:26:51.758Z,7.69
2023-02-25T00:29:20.315Z,7.66
2023-02-25T00:31:48.555Z,7.65
2023-02-25T00:34:18.387Z,7.66
2023-02-25T00:36:47.790Z,7.63
2023-02-25T00:39:16.012Z,7.56
2023-02-25T00:41:44.254Z,7.56
2023-02-25T00:44:13.289Z,7.56
2023-02-25T00:46:41.621Z,7.59
2023-02-25T00:49:09.844Z,7.59
2023-02-25T00:51:40.033Z,7.61
2023-02-25T00:54:08.335Z,7.61
2023-02-25T00:56:37.309Z,7.66
2023-02-25T00:59:05.457Z,7.71
2023-02-25T01:01:34.842Z,7.77
2023-02-25T01:04:03.020Z,7.79
2023-02-25T01:06:32.791Z,7.81
2023-02-25T01:09:02.755Z,7.81
2023-02-25T01:11:33.170Z,7.80
2023-02-25T01:14:03.013Z,7.75
2023-02-25T01:16:33.146Z,7.74
2023-02-25T01:19:04.140Z,7.69
2023-02-25T01:21:34.468Z,7.64
2023-02-25T01:24:06.453Z,7.61
2023-02-25T01:26:38.011Z,7.55
2023-02-25T01:29:08.923Z,7.52
2023-02-25T01:31:38.450Z,7.48
2023-02-25T01:34:09.082Z,7.42
2023-02-25T01:36:37.204Z,7.40
2023-02-25T01:39:09.192Z,7.36
2023-02-25T01:41:38.842Z,7.32
2023-02-25T01:44:10.794Z,7.30
2023-02-25T01:46:40.415Z,7.26
2023-02-25T01:49:14.184Z,7.25
2023-02-25T01:51:43.548Z,7.22
2023-02-25T01:54:15.881Z,7.20
2023-02-25T01:56:49.648Z,7.16
2023-02-25T01:59:19.807Z,7.17
2023-02-25T02:01:48.581Z,7.20
2023-02-25T02:04:19.856Z,7.23
2023-02-25T02:06:50.632Z,7.25
2023-02-25T02:09:24.128Z,7.24
2023-02-25T02:11:52.466Z,7.25
2023-02-25T02:14:24.115Z,7.29
2023-02-25T02:17:06.065Z,7.31
2023-02-25T02:19:48.417Z,7.31
2023-02-25T02:22:24.290Z,7.29
2023-02-25T02:25:38.189Z,7.28
2023-02-25T02:28:41.490Z,7.26
2023-02-25T02:31:34.391Z,7.24
2023-02-25T02:34:16.866Z,7.22
2023-02-25T02:37:00.479Z,7.21
2023-02-25T02:39:38.792Z,7.17
2023-02-25T02:42:17.066Z,7.11
2023-02-25T02:44:53.970Z,7.11
2023-02-25T02:47:26.720Z,7.09
2023-02-25T02:49:59.081Z,7.11
2023-02-25T02:52:30.755Z,7.08
2023-02-25T02:55:03.900Z,7.03
2023-02-25T02:57:36.015Z,7.01
2023-02-25T03:00:17.919Z,6.96
2023-02-25T03:02:53.784Z,6.93
2023-02-25T03:05:26.734Z,6.90
2023-02-25T03:08:03.244Z,6.89
2023-02-25T03:10:31.961Z,6.86
2023-02-25T03:13:00.145Z,6.87
2023-02-25T03:15:30.214Z,6.86
2023-02-25T03:18:05.291Z,6.88
2023-02-25T03:20:39.042Z,6.85
2023-02-25T03:23:12.826Z,6.85
2023-02-25T03:25:47.929Z,6.84
2023-02-25T03:28:26.273Z,6.80
2023-02-25T03:31:01.553Z,6.80
2023-02-25T03:33:38.300Z,6.79
2023-02-25T03:36:12.336Z,6.79
2023-02-25T03:38:45.433Z,6.84
2023-02-25T03:41:16.415Z,6.86
2023-02-25T03:43:49.571Z,6.90
2023-02-25T03:46:20.081Z,6.94
2023-02-25T03:48:51.473Z,6.97
2023-02-25T03:51:25.400Z,7.01
2023-02-25T03:53:53.677Z,7.02
2023-02-25T03:56:22.555Z,7.04
2023-02-25T03:58:51.020Z,7.07
2023-02-25T04:01:24.233Z,7.09
2023-02-25T04:03:53.964Z,7.12
2023-02-25T04:06:24.230Z,7.14
2023-02-25T04:08:53.091Z,7.17
2023-02-25T04:11:21.393Z,7.19
2023-02-25T04:13:49.461Z,7.19
2023-02-25T04:16:17.669Z,7.27
2023-02-25T04:18:45.897Z,7.33
2023-02-25T04:21:27.554Z,7.32
2023-02-25T04:23:55.464Z,7.30
2023-02-25T04:26:23.912Z,7.32
2023-02-25T04:28:52.976Z,7.33
2023-02-25T04:31:21.500Z,7.34
2023-02-25T04:33:50.599Z,7.33
2023-02-25T04:36:32.274Z,7.31
2023-02-25T04:39:01.700Z,7.30
2023-02-25T04:41:31.515Z,7.32
2023-02-25T04:44:00.163Z,7.33
2023-02-25T04:46:28.451Z,7.35
2023-02-25T04:48:57.210Z,7.37
2023-02-25T04:51:25.401Z,7.40
2023-02-25T04:53:55.076Z,7.38
2023-02-25T04:56:23.867Z,7.40
2023-02-25T04:58:52.390Z,7.39
2023-02-25T05:01:20.773Z,7.41
2023-02-25T05:03:49.153Z,7.43
2023-02-25T05:06:17.382Z,7.43
2023-02-25T05:08:45.848Z,7.40
2023-02-25T05:11:18.510Z,7.38
2023-02-25T05:13:46.978Z,7.35
2023-02-25T05:16:17.813Z,7.38
2023-02-25T05:18:48.144Z,7.37
2023-02-25T05:21:19.341Z,7.38
2023-02-25T05:23:48.933Z,7.39
2023-02-25T05:26:22.510Z,7.39
2023-02-25T05:28:51.734Z,7.38
2023-02-25T05:31:20.243Z,7.39
2023-02-25T05:33:48.687Z,7.39
2023-02-25T05:36:17.849Z,7.40
2023-02-25T05:38:46.972Z,7.39
2023-02-25T05:41:16.323Z,7.43
2023-02-25T05:43:46.126Z,7.42
2023-02-25T05:46:15.111Z,7.38
2023-02-25T05:48:46.818Z,7.40
2023-02-25T05:51:17.176Z,7.40
2023-02-25T05:53:46.039Z,7.39
2023-02-25T05:56:16.266Z,7.36
2023-02-25T05:58:46.818Z,7.38
2023-02-25T06:01:17.750Z,7.35
2023-02-25T06:03:49.280Z,7.34
2023-02-25T06:06:23.497Z,7.35
2023-02-25T06:08:53.202Z,7.37
2023-02-25T06:11:24.235Z,7.36
2023-02-25T06:13:55.057Z,7.38
2023-02-25T06:16:26.095Z,7.37
2023-02-25T06:18:54.627Z,7.39
2023-02-25T06:21:23.034Z,7.38
2023-02-25T06:23:51.835Z,7.36
2023-02-25T06:26:20.810Z,7.36
2023-02-25T06:28:49.338Z,7.36
2023-02-25T06:31:21.008Z,7.37
2023-02-25T06:33:51.428Z,7.35
2023-02-25T06:36:24.026Z,7.32
2023-02-25T06:38:52.613Z,7.31
2023-02-25T06:41:23.400Z,7.30
2023-02-25T06:43:52.523Z,7.27
2023-02-25T06:46:24.761Z,7.26
2023-02-25T06:48:53.598Z,7.25
2023-02-25T06:51:21.764Z,7.24
2023-02-25T06:53:51.173Z,7.23
2023-02-25T06:56:20.394Z,7.20
2023-02-25T06:58:49.093Z,7.17
2023-02-25T07:01:18.019Z,7.20
2023-02-25T07:03:47.668Z,7.21
2023-02-25T07:06:16.356Z,7.21
2023-02-25T07:08:45.037Z,7.19
2023-02-25T07:11:15.594Z,7.16
2023-02-25T07:13:44.560Z,7.14
2023-02-25T07:16:13.651Z,7.12
2023-02-25T07:18:42.169Z,7.15
2023-02-25T07:21:13.844Z,7.12
2023-02-25T07:23:42.699Z,7.13
2023-02-25T07:26:13.535Z,7.11
2023-02-25T07:28:41.999Z,7.05
2023-02-25T07:31:15.642Z,7.05
2023-02-25T07:33:44.806Z,7.09
2023-02-25T07:36:15.556Z,7.12
2023-02-25T07:38:44.184Z,7.15
2023-02-25T07:41:16.192Z,7.17
2023-02-25T07:43:44.881Z,7.17
2023-02-25T07:46:13.898Z,7.11
2023-02-25T07:48:42.840Z,7.10
2023-02-25T07:51:12.909Z,7.10
2023-02-25T07:53:43.194Z,7.10
2023-02-25T07:56:11.824Z,7.08
2023-02-25T07:58:40.574Z,7.08
2023-02-25T08:01:10.416Z,7.08
2023-02-25T08:03:38.811Z,7.10
2023-02-25T08:06:09.052Z,7.10
2023-02-25T08:08:37.997Z,7.11
2023-02-25T08:11:08.983Z,7.10
2023-02-25T08:13:37.557Z,7.11
2023-02-25T08:16:06.908Z,7.11
2023-02-25T08:18:35.047Z,7.14
2023-02-25T08:21:04.533Z,7.16
2023-02-25T08:23:33.050Z,7.15
2023-02-25T08:26:02.652Z,7.18
2023-02-25T08:28:35.410Z,7.21
2023-02-25T08:31:07.818Z,7.21
2023-02-25T08:33:36.228Z,7.20
2023-02-25T08:36:09.902Z,7.24
2023-02-25T08:38:39.011Z,7.26
2023-02-25T08:41:08.771Z,7.28
2023-02-25T08:43:38.782Z,7.28
2023-02-25T08:46:07.592Z,7.29
2023-02-25T08:48:36.341Z,7.32
2023-02-25T08:51:08.590Z,7.42
2023-02-25T08:53:39.005Z,7.47
2023-02-25T08:56:08.085Z,7.53
2023-02-25T08:58:36.755Z,7.62
2023-02-25T09:01:13.141Z,7.62
2023-02-25T09:03:53.686Z,7.64
2023-02-25T09:06:23.747Z,7.59
2023-02-25T09:08:54.310Z,7.56
2023-02-25T09:11:23.457Z,7.48
2023-02-25T09:13:51.733Z,7.46
2023-02-25T09:16:21.392Z,7.38
2023-02-25T09:18:51.521Z,7.35
2023-02-25T09:21:21.066Z,7.33
2023-02-25T09:23:52.234Z,7.34
2023-02-25T09:26:21.430Z,7.32
2023-02-25T09:28:49.745Z,7.33
2023-02-25T09:31:19.056Z,7.40
2023-02-25T09:33:48.805Z,7.46
2023-02-25T09:36:19.074Z,7.49
2023-02-25T09:38:48.983Z,7.50
2023-02-25T09:41:26.753Z,7.63
2023-02-25T09:44:03.734Z,7.75
2023-02-25T09:46:33.897Z,7.83
2023-02-25T09:49:12.101Z,7.84
2023-02-25T09:51:45.933Z,7.90
2023-02-25T09:54:22.398Z,7.97
2023-02-25T09:56:51.555Z,8.08
2023-02-25T09:59:22.309Z,8.15
2023-02-25T10:01:56.988Z,8.08
2023-02-25T10:04:33.421Z,7.97
2023-02-25T10:07:09.941Z,7.84
2023-02-25T10:09:48.312Z,7.73
2023-02-25T10:12:30.904Z,7.62
2023-02-25T10:15:26.099Z,7.46
2023-02-25T10:18:11.474Z,7.40
2023-02-25T10:20:50.581Z,7.40
2023-02-25T10:23:31.913Z,7.37
2023-02-25T10:26:07.392Z,7.36
2023-02-25T10:28:36.982Z,7.34
2023-02-25T10:31:08.912Z,7.39
2023-02-25T10:33:40.452Z,7.49
2023-02-25T10:36:11.429Z,7.48
2023-02-25T10:38:43.634Z,7.48
2023-02-25T10:41:12.889Z,7.53
2023-02-25T10:43:41.319Z,7.53
2023-02-25T10:46:15.453Z,7.59
2023-02-25T10:48:48.797Z,7.68
2023-02-25T10:51:18.548Z,7.75
2023-02-25T10:54:05.145Z,7.84
2023-02-25T10:56:42.590Z,8.05
2023-02-25T10:59:31.109Z,7.91
2023-02-25T11:02:01.500Z,7.74
2023-02-25T11:04:33.460Z,7.66
2023-02-25T11:07:03.428Z,7.57
2023-02-25T11:09:38.672Z,7.53
2023-02-25T11:12:17.881Z,7.54
2023-02-25T11:14:46.386Z,7.64
2023-02-25T11:17:20.441Z,7.88
2023-02-25T11:19:52.615Z,7.83
2023-02-25T11:22:26.557Z,7.76
2023-02-25T11:25:00.760Z,7.75
2023-02-25T11:27:37.883Z,7.76
2023-02-25T11:30:16.962Z,7.85
2023-02-25T11:32:47.215Z,7.86
2023-02-25T11:35:20.178Z,7.91
2023-02-25T11:37:50.073Z,8.02
2023-02-25T11:40:28.101Z,8.21
2023-02-25T11:43:18.057Z,8.28
2023-02-25T11:45:56.833Z,8.17
2023-02-25T11:48:30.004Z,8.20
2023-02-25T11:51:10.547Z,8.26
2023-02-25T11:54:09.428Z,8.40
2023-02-25T11:56:39.803Z,8.45
2023-02-25T11:59:22.205Z,8.54
2023-02-25T12:02:21.914Z,8.83
2023-02-25T12:05:09.994Z,9.05
2023-02-25T12:08:10.055Z,9.23
2023-02-25T12:11:10.266Z,9.45
2023-02-25T12:14:04.804Z,9.37
2023-02-25T12:17:10.243Z,9.30
2023-02-25T12:20:13.036Z,9.03
2023-02-25T12:23:18.968Z,8.76
2023-02-25T12:25:54.688Z,8.67
2023-02-25T12:28:49.805Z,8.83
2023-02-25T12:31:59.796Z,8.77
2023-02-25T12:35:01.518Z,8.57
2023-02-25T12:37:50.026Z,8.32
2023-02-25T12:41:01.652Z,8.14
2023-02-25T12:43:41.346Z,8.04
2023-02-25T12:46:40.127Z,8.08
2023-02-25T12:49:38.620Z,8.33
2023-02-25T12:52:28.361Z,8.27
2023-02-25T12:55:28.472Z,8.18
2023-02-25T12:58:26.883Z,8.45
2023-02-25T13:01:23.824Z,8.78
2023-02-25T13:04:14.564Z,9.04
2023-02-25T13:07:19.022Z,9.17
2023-02-25T13:10:13.245Z,9.25
2023-02-25T13:12:59.087Z,9.04
2023-02-25T13:15:37.915Z,8.84
2023-02-25T13:18:24.029Z,8.78
2023-02-25T13:21:09.382Z,8.60
2023-02-25T13:24:02.090Z,8.47
2023-02-25T13:27:14.011Z,8.41
2023-02-25T13:29:49.770Z,8.27
2023-02-25T13:32:33.860Z,8.24
2023-02-25T13:35:17.218Z,8.22
2023-02-25T13:37:57.432Z,8.22
2023-02-25T13:40:48.882Z,8.22
2023-02-25T13:43:45.056Z,8.20
2023-02-25T13:46:37.326Z,8.12
2023-02-25T13:49:34.461Z,8.05
2023-02-25T13:52:21.564Z,7.98
2023-02-25T13:55:17.509Z,7.90
2023-02-25T13:58:00.796Z,7.87
2023-02-25T14:00:43.574Z,7.98
2023-02-25T14:03:34.641Z,7.93
2023-02-25T14:06:16.336Z,7.85
2023-02-25T14:09:11.403Z,7.89
2023-02-25T14:11:57.720Z,8.03
2023-02-25T14:14:54.817Z,8.10
2023-02-25T14:17:40.341Z,8.12
2023-02-25T14:20:32.523Z,8.12
2023-02-25T14:23:09.215Z,8.12
2023-02-25T14:25:48.545Z,8.10
2023-02-25T14:28:27.294Z,8.03
2023-02-25T14:31:07.643Z,8.08
2023-02-25T14:33:52.847Z,8.08
2023-02-25T14:36:36.264Z,8.05
2023-02-25T14:39:21.839Z,8.00
2023-02-25T14:42:03.896Z,7.96
2023-02-25T14:44:41.301Z,7.91
2023-02-25T14:47:15.735Z,7.94
2023-02-25T14:49:54.201Z,7.86
2023-02-25T14:52:36.747Z,7.83
2023-02-25T14:55:40.301Z,7.88
2023-02-25T14:58:39.179Z,7.87
2023-02-25T15:01:38.939Z,7.87
2023-02-25T15:04:26.564Z,7.84
2023-02-25T15:07:18.469Z,7.87
2023-02-25T15:10:27.314Z,7.88
2023-02-25T15:13:46.508Z,7.93
2023-02-25T15:16:50.045Z,7.89
2023-02-25T15:19:45.714Z,7.83
2023-02-25T15:22:23.886Z,7.83
2023-02-25T15:24:53.411Z,7.83
2023-02-25T15:27:48.385Z,7.83
2023-02-25T15:30:19.372Z,7.82
2023-02-25T15:32:55.112Z,7.82
2023-02-25T15:35:25.499Z,7.80
2023-02-25T15:38:07.303Z,7.82
2023-02-25T15:40:47.985Z,7.85
2023-02-25T15:43:44.917Z,7.83
2023-02-25T15:46:44.518Z,7.76
2023-02-25T15:49:33.688Z,7.69
2023-02-25T15:52:04.764Z,7.63
2023-02-25T15:54:51.457Z,7.58
2023-02-25T15:57:41.959Z,7.57
2023-02-25T16:00:52.336Z,7.61
2023-02-25T16:03:42.500Z,7.66
2023-02-25T16:06:21.291Z,7.67
2023-02-25T16:08:54.793Z,7.63
2023-02-25T16:11:29.683Z,7.63
2023-02-25T16:14:00.422Z,7.58
2023-02-25T16:16:30.424Z,7.55
2023-02-25T16:19:01.566Z,7.48
2023-02-25T16:21:41.233Z,7.46
2023-02-25T16:24:11.520Z,7.40
2023-02-25T16:26:46.966Z,7.37
2023-02-25T16:29:26.950Z,7.34
2023-02-25T16:31:59.890Z,7.30
2023-02-25T16:34:35.975Z,7.26
2023-02-25T16:37:13.215Z,7.25
2023-02-25T16:39:41.812Z,7.24
2023-02-25T16:42:14.005Z,7.21
2023-02-25T16:44:45.665Z,7.21
2023-02-25T16:47:25.201Z,7.18
2023-02-25T16:49:55.568Z,7.19
2023-02-25T16:52:31.304Z,7.21
2023-02-25T16:55:02.084Z,7.22
2023-02-25T16:57:30.690Z,7.21
2023-02-25T17:00:16.634Z,7.24
2023-02-25T17:02:48.518Z,7.30
2023-02-25T17:05:26.061Z,7.33
2023-02-25T17:08:01.248Z,7.35
2023-02-25T17:10:32.065Z,7.38
2023-02-25T17:13:02.933Z,7.35
2023-02-25T17:15:34.179Z,7.34
2023-02-25T17:18:08.746Z,7.35
2023-02-25T17:20:38.049Z,7.33
2023-02-25T17:23:13.492Z,7.30
2023-02-25T17:25:44.396Z,7.28
2023-02-25T17:28:21.904Z,7.27
2023-02-25T17:30:50.611Z,7.25
2023-02-25T17:33:25.154Z,7.25
2023-02-25T17:35:56.876Z,7.27
2023-02-25T17:38:29.118Z,7.24
2023-02-25T17:40:59.425Z,7.22
2023-02-25T17:43:35.343Z,7.22
2023-02-25T17:46:15.869Z,7.19
2023-02-25T17:48:53.218Z,7.22
2023-02-25T17:51:32.315Z,7.20
2023-02-25T17:54:07.651Z,7.22
2023-02-25T17:56:37.414Z,7.24
2023-02-25T17:59:07.820Z,7.26
2023-02-25T18:01:54.097Z,7.23
2023-02-25T18:04:26.946Z,7.24
2023-02-25T18:06:56.544Z,7.25
2023-02-25T18:09:32.932Z,7.19
2023-02-25T18:12:03.426Z,7.20
2023-02-25T18:14:36.313Z,7.21
2023-02-25T18:17:14.233Z,7.17
2023-02-25T18:19:46.118Z,7.15
2023-02-25T18:22:32.374Z,7.19
2023-02-25T18:25:04.292Z,7.17
2023-02-25T18:27:34.174Z,7.16
2023-02-25T18:30:18.332Z,7.15
2023-02-25T18:32:47.838Z,7.15
2023-02-25T18:35:16.680Z,7.14
2023-02-25T18:37:51.233Z,7.14
2023-02-25T18:40:29.648Z,7.16
2023-02-25T18:42:58.313Z,7.20
2023-02-25T18:45:28.000Z,7.18
2023-02-25T18:47:57.781Z,7.17
2023-02-25T18:50:27.377Z,7.20
2023-02-25T18:52:55.937Z,7.21
2023-02-25T18:55:28.806Z,7.22
2023-02-25T18:57:57.748Z,7.24
2023-02-25T19:00:28.662Z,7.25
2023-02-25T19:02:59.612Z,7.22
2023-02-25T19:05:29.773Z,7.18
2023-02-25T19:07:58.150Z,7.18
2023-02-25T19:10:29.757Z,7.19
2023-02-25T19:13:02.202Z,7.15
2023-02-25T19:15:30.656Z,7.17
2023-02-25T19:17:58.843Z,7.15
2023-02-25T19:20:27.517Z,7.12
2023-02-25T19:22:56.574Z,7.14
2023-02-25T19:25:28.796Z,7.14
2023-02-25T19:27:58.372Z,7.13
2023-02-25T19:30:29.265Z,7.15
2023-02-25T19:33:02.864Z,7.16
2023-02-25T19:35:37.431Z,7.17
2023-02-25T19:38:08.855Z,7.18
2023-02-25T19:40:38.610Z,7.16
2023-02-25T19:43:07.378Z,7.16
2023-02-25T19:45:35.565Z,7.17
2023-02-25T19:48:04.444Z,7.18
2023-02-25T19:50:34.920Z,7.20
2023-02-25T19:53:05.633Z,7.20
2023-02-25T19:55:34.714Z,7.20
2023-02-25T19:58:04.712Z,7.14
2023-02-25T20:00:33.675Z,7.21
2023-02-25T20:03:02.089Z,7.19
2023-02-25T20:05:30.433Z,7.21
2023-02-25T20:07:58.642Z,7.23
2023-02-25T20:10:26.837Z,7.22
2023-02-25T20:12:55.196Z,7.22
2023-02-25T20:15:25.570Z,7.18
2023-02-25T20:17:55.204Z,7.21
2023-02-25T20:20:24.036Z,7.20
2023-02-25T20:22:52.230Z,7.25
2023-02-25T20:25:20.755Z,7.22
2023-02-25T20:27:49.091Z,7.22
2023-02-25T20:30:23.137Z,7.25
2023-02-25T20:32:53.162Z,7.23
2023-02-25T20:35:22.898Z,7.23
2023-02-25T20:38:06.205Z,7.20
2023-02-25T20:40:34.511Z,7.23
2023-02-25T20:43:03.474Z,7.23
2023-02-25T20:45:32.541Z,7.25
2023-02-25T20:48:02.831Z,7.24
2023-02-25T20:50:31.556Z,7.27
2023-02-25T20:53:00.160Z,7.30
2023-02-25T20:55:28.420Z,7.29
2023-02-25T20:57:56.752Z,7.26
2023-02-25T21:00:25.026Z,7.31
2023-02-25T21:02:53.605Z,7.33
2023-02-25T21:05:23.246Z,7.35
2023-02-25T21:07:51.973Z,7.35
2023-02-25T21:10:21.238Z,7.35
2023-02-25T21:12:49.468Z,7.33
2023-02-25T21:15:17.973Z,7.30
2023-02-25T21:17:46.325Z,7.27
2023-02-25T21:20:14.414Z,7.28
2023-02-25T21:22:43.923Z,7.25
2023-02-25T21:25:12.343Z,7.28
2023-02-25T21:27:42.939Z,7.34
2023-02-25T21:30:15.293Z,7.33
2023-02-25T21:32:43.468Z,7.38
2023-02-25T21:35:11.845Z,7.36
2023-02-25T21:37:41.091Z,7.36
2023-02-25T21:40:12.469Z,7.43
2023-02-25T21:42:40.598Z,7.42
2023-02-25T21:45:11.167Z,7.41
2023-02-25T21:47:39.342Z,7.40
2023-02-25T21:50:08.462Z,7.31
2023-02-25T21:52:36.589Z,7.34
2023-02-25T21:55:04.997Z,7.38
2023-02-25T21:57:34.531Z,7.39
2023-02-25T22:00:02.749Z,7.43
2023-02-25T22:02:32.916Z,7.42
2023-02-25T22:05:01.162Z,7.42
2023-02-25T22:07:29.603Z,7.42
2023-02-25T22:09:58.189Z,7.43
2023-02-25T22:12:26.415Z,7.40
2023-02-25T22:14:55.896Z,7.37
2023-02-25T22:17:24.507Z,7.37
2023-02-25T22:19:52.737Z,7.37
2023-02-25T22:22:20.952Z,7.38
2023-02-25T22:24:49.258Z,7.36
2023-02-25T22:27:17.434Z,7.35
2023-02-25T22:29:45.710Z,7.36
2023-02-25T22:32:15.583Z,7.39
2023-02-25T22:34:43.959Z,7.38
2023-02-25T22:37:12.052Z,7.41
2023-02-25T22:39:40.255Z,7.44
2023-02-25T22:42:08.473Z,7.43
2023-02-25T22:44:36.606Z,7.41
2023-02-25T22:47:07.467Z,7.43
2023-02-25T22:49:39.976Z,7.44
2023-02-25T22:52:08.131Z,7.45
2023-02-25T22:54:36.577Z,7.43
2023-02-25T22:57:04.838Z,7.46
2023-02-25T22:59:33.059Z,7.46
2023-02-25T23:02:02.808Z,7.44
2023-02-25T23:04:31.005Z,7.43
2023-02-25T23:07:01.470Z,7.41
2023-02-25T23:09:29.893Z,7.41
2023-02-25T23:12:00.037Z,7.39
2023-02-25T23:14:28.917Z,7.40
2023-02-25T23:16:57.285Z,7.39
2023-02-25T23:19:25.485Z,7.39
2023-02-25T23:21:53.657Z,7.45
2023-02-25T23:24:23.461Z,7.43
2023-02-25T23:26:53.873Z,7.46
2023-02-25T23:29:22.356Z,7.49
2023-02-25T23:31:51.109Z,7.47
2023-02-25T23:34:22.971Z,7.45
2023-02-25T23:36:51.574Z,7.38
2023-02-25T23:39:19.987Z,7.34
2023-02-25T23:41:49.798Z,7.32
2023-02-25T23:44:18.125Z,7.33
2023-02-25T23:46:46.436Z,7.32
2023-02-25T23:49:17.158Z,7.31
2023-02-25T23:51:46.565Z,7.33
2023-02-25T23:54:16.961Z,7.35
2023-02-25T23:56:45.160Z,7.36
2023-02-25T23:59:15.188Z,7.37
